createdAt,value
2023-01-30T00:00:32.573Z,5.6
2023-01-30T00:05:31.810Z,5.6
2023-01-30T00:10:31.950Z,5.6
2023-01-30T00:15:32.371Z,5.6
2023-01-30T00:20:32.453Z,5.6
2023-01-30T00:25:32.750Z,5.6
2023-01-30T00:30:32.250Z,5.6
2023-01-30T00:35:31.605Z,5.6
2023-01-30T09:00:32.504Z,3.3
2023-01-30T09:06:07.084Z,3.3
2023-01-30T09:10:32.413Z,4.2
2023-01-30T09:15:32.497Z,4.2
2023-01-30T09:20:32.689Z,3.8
2023-01-30T09:25:32.050Z,3.8
2023-01-30T09:30:32.634Z,4.4
2023-01-30T09:35:32.384Z,4.4
2023-01-30T09:40:32.856Z,4.3
2023-01-30T09:45:31.959Z,4.3
2023-01-30T09:50:32.375Z,4
2023-01-30T09:55:32.009Z,4
2023-01-30T10:00:32.263Z,3.5
2023-01-30T10:05:32.561Z,3.5
2023-01-30T10:10:32.630Z,4.1
2023-01-30T10:15:32.866Z,4.1
2023-01-30T10:20:32.117Z,4.4
2023-01-30T10:25:33.311Z,4.4
2023-01-30T10:30:32.853Z,4.9
2023-01-30T10:35:31.966Z,4.9
2023-01-30T10:40:32.212Z,4.7
2023-01-30T10:45:32.256Z,4.7
2023-01-30T10:50:32.821Z,4
2023-01-30T10:55:37.603Z,4
2023-01-30T11:00:32.649Z,3.6
2023-01-30T11:05:32.101Z,3.6
2023-01-30T11:10:32.227Z,5.2
2023-01-30T11:15:32.310Z,5.2
2023-01-30T11:20:32.293Z,5
2023-01-30T11:25:32.388Z,5
2023-01-30T11:30:32.477Z,5.1
2023-01-30T11:35:32.588Z,5.1
2023-01-30T11:40:33.017Z,3.3
2023-01-30T11:45:32.084Z,3.3
2023-01-30T11:50:36.394Z,2.9
2023-01-30T11:55:32.667Z,2.9
2023-01-30T12:00:33.023Z,4
2023-01-30T12:05:32.181Z,4
2023-01-30T12:10:32.409Z,3
2023-01-30T12:15:32.567Z,3
2023-01-30T12:20:32.757Z,2.7
2023-01-30T12:25:32.973Z,2.7
2023-01-30T12:30:32.512Z,3.4
2023-01-30T12:35:32.821Z,3.4
2023-01-30T12:40:32.826Z,4.1
2023-01-30T12:45:32.364Z,4.1
2023-01-30T12:50:32.493Z,3.7
2023-01-30T12:55:32.571Z,3.7
2023-01-30T13:00:32.886Z,2.6
2023-01-30T13:05:33.046Z,2.6
2023-01-30T13:10:32.253Z,2.7
2023-01-30T13:15:32.217Z,2.7
2023-01-30T13:20:32.325Z,3.6
2023-01-30T13:25:32.363Z,3.6
2023-01-30T13:30:32.451Z,2.9
2023-01-30T13:35:32.560Z,2.9
2023-01-30T13:40:32.868Z,3
2023-01-30T13:45:32.468Z,3
2023-01-30T13:50:32.502Z,3.6
2023-01-30T13:55:32.745Z,3.6
2023-01-30T14:00:33.003Z,3.1
2023-01-30T14:05:43.481Z,3.1
2023-01-30T14:10:32.675Z,4.6
2023-01-30T14:15:32.435Z,4.6
2023-01-30T14:20:32.513Z,3.6
2023-01-30T14:25:32.588Z,3.6
2023-01-30T14:30:32.599Z,4
2023-01-30T14:35:32.610Z,4
2023-01-30T14:40:32.689Z,3.9
2023-01-30T14:45:32.813Z,3.9
2023-01-30T14:50:33.099Z,3.9
2023-01-30T14:55:32.365Z,3.9
2023-01-30T15:00:32.884Z,3.8
2023-01-30T15:05:32.640Z,3.8
2023-01-30T15:10:33.126Z,4
2023-01-30T15:15:32.975Z,4
2023-01-30T15:20:32.463Z,4.6
2023-01-30T15:25:32.616Z,4.6
2023-01-30T15:30:32.546Z,4.5
2023-01-30T15:35:32.107Z,4.5
2023-01-30T15:40:32.903Z,3.6
2023-01-30T15:45:32.714Z,3.6
2023-01-30T15:50:32.601Z,3.2
2023-01-30T15:55:32.763Z,3.2
2023-01-30T16:00:32.938Z,3.8
2023-01-30T16:05:32.390Z,3.8
2023-01-30T16:10:33.110Z,5
2023-01-30T16:15:32.796Z,5
2023-01-30T16:20:32.301Z,3.9
2023-01-30T16:25:32.467Z,3.9
2023-01-30T16:30:32.774Z,3.3
2023-01-30T16:35:32.466Z,3.3
2023-01-30T16:40:32.606Z,3.8
2023-01-30T16:45:32.806Z,3.8
2023-01-30T16:50:32.899Z,3.1
2023-01-30T16:55:32.711Z,3.1
2023-01-30T17:00:32.751Z,3.2
2023-01-30T17:05:32.892Z,3.2
2023-01-30T17:10:33.106Z,4.1
2023-01-30T17:15:33.023Z,4.1
2023-01-30T17:20:32.316Z,3.8
2023-01-30T17:25:32.346Z,3.8
2023-01-30T17:30:32.518Z,3.8
2023-01-30T17:35:32.697Z,3.8
2023-01-30T17:40:32.873Z,3.5
2023-01-30T17:45:32.958Z,3.5
2023-01-30T17:50:33.127Z,3.5
2023-01-30T17:55:32.966Z,3.5
2023-01-30T18:00:33.072Z,3.7
2023-01-30T18:05:32.440Z,3.7
2023-01-30T18:10:32.636Z,3.7
2023-01-30T18:15:32.672Z,3.7
2023-01-30T18:20:32.846Z,3.3
2023-01-30T18:25:33.024Z,3.3
2023-01-30T18:30:33.293Z,2.7
2023-01-30T18:35:32.995Z,2.7
2023-01-30T18:40:33.385Z,3.8
2023-01-30T18:45:32.440Z,3.8
2023-01-30T18:50:32.476Z,3.2
2023-01-30T18:55:32.502Z,3.2
2023-01-30T19:00:32.610Z,3
2023-01-30T19:05:32.761Z,3
2023-01-30T19:10:32.984Z,3.1
2023-01-30T19:15:33.133Z,3.1
2023-01-30T19:20:33.293Z,2.8
2023-01-30T19:25:32.473Z,2.8
2023-01-30T19:30:32.577Z,3.1
2023-01-30T19:35:32.681Z,3.1
2023-01-30T19:40:32.991Z,2.7
2023-01-30T19:45:33.179Z,2.7
2023-01-30T19:50:33.281Z,3.1
2023-01-30T19:55:32.472Z,3.1
2023-01-30T20:00:32.624Z,2.7
2023-01-30T20:05:32.729Z,2.7
2023-01-30T20:10:32.966Z,2.9
2023-01-30T20:15:33.004Z,2.9
2023-01-30T20:20:33.203Z,3.1
2023-01-30T20:25:32.573Z,3.1
2023-01-30T20:30:33.180Z,3.8
2023-01-30T20:35:34.608Z,3.8
2023-01-30T20:40:32.640Z,2.7
2023-01-30T20:45:32.696Z,2.7
2023-01-30T20:50:32.969Z,2.5
2023-01-30T20:55:33.159Z,2.5
2023-01-30T21:00:33.301Z,2.1
2023-01-30T21:05:32.385Z,2.1
2023-01-30T21:10:32.868Z,3.5
2023-01-30T21:15:32.969Z,3.5
2023-01-30T21:20:33.030Z,3.2
2023-01-30T21:25:33.173Z,3.2
2023-01-30T21:30:32.857Z,2.9
2023-01-30T21:35:32.844Z,2.9
2023-01-30T21:40:33.088Z,2.8
2023-01-30T21:45:33.152Z,2.8
2023-01-30T21:50:33.263Z,3.1
2023-01-30T21:55:32.419Z,3.1
2023-01-30T22:00:33.055Z,2.2
2023-01-30T22:05:33.082Z,2.2
2023-01-30T22:10:32.479Z,2.3
2023-01-30T22:15:32.491Z,2.3
2023-01-30T22:20:32.575Z,2.2
2023-01-30T22:25:32.980Z,2.2
2023-01-30T22:30:33.076Z,2.6
2023-01-30T22:35:32.389Z,2.6
2023-01-30T22:40:32.413Z,2.7
2023-01-30T22:45:32.388Z,2.7
2023-01-30T22:50:32.388Z,2.7
2023-01-30T22:55:32.595Z,2.7
2023-01-30T23:00:32.743Z,2.2
2023-01-30T23:05:32.934Z,2.2
2023-01-30T23:10:33.200Z,2.2
2023-01-30T23:15:33.343Z,2.2
2023-01-30T23:20:32.531Z,2.2
2023-01-30T23:25:32.637Z,2.2
2023-01-30T23:30:32.869Z,2
2023-01-30T23:35:33.281Z,2
2023-01-30T23:40:32.570Z,1.7
2023-01-30T23:45:32.635Z,1.7
2023-01-30T23:55:33.472Z,1.9
